createdAt,value
2018-12-27T00:00:51.393Z,69.34
2018-12-27T00:03:21.807Z,68.99
2018-12-27T00:05:52.121Z,68.74
2018-12-27T00:08:22.896Z,68.32
2018-12-27T00:10:53.190Z,67.64
2018-12-27T00:13:42.300Z,68.82
2018-12-27T00:16:12.664Z,68.71
2018-12-27T00:18:42.982Z,69.42
2018-12-27T00:21:13.396Z,68.90
2018-12-27T00:26:54.087Z,68.52
2018-12-27T00:32:42.988Z,68.45
2018-12-27T00:35:32.249Z,68.31
2018-12-27T00:38:02.712Z,68.42
2018-12-27T00:40:33.074Z,68.81
2018-12-27T00:46:21.174Z,68.89
2018-12-27T00:48:52.142Z,69.33
2018-12-27T00:51:33.726Z,68.98
2018-12-27T00:54:04.063Z,68.46
2018-12-27T00:56:34.968Z,69.06
2018-12-27T00:59:05.444Z,69.11
2018-12-27T01:01:35.768Z,69.14
2018-12-27T01:04:06.447Z,68.49
2018-12-27T01:06:37.013Z,68.49
2018-12-27T01:09:07.894Z,68.32
2018-12-27T01:11:38.311Z,68.57
2018-12-27T01:14:09.375Z,68.30
2018-12-27T01:16:39.592Z,67.84
2018-12-27T01:19:28.866Z,68.22
2018-12-27T01:21:59.208Z,68.31
2018-12-27T01:24:29.599Z,68.31
2018-12-27T01:30:13.426Z,67.79
2018-12-27T01:32:43.867Z,67.63
2018-12-27T01:35:14.291Z,67.86
2018-12-27T01:38:03.606Z,67.69
2018-12-27T01:40:33.975Z,68.17
2018-12-27T01:43:04.792Z,68.48
2018-12-27T01:45:53.991Z,68.54
2018-12-27T01:48:24.368Z,68.25
2018-12-27T01:50:54.833Z,68.33
2018-12-27T01:53:25.498Z,68.52
2018-12-27T01:55:55.944Z,68.27
2018-12-27T01:58:26.246Z,68.30
2018-12-27T02:07:15.299Z,68.55
2018-12-27T02:10:04.403Z,69.28
2018-12-27T02:12:34.891Z,69.22
2018-12-27T02:15:05.328Z,68.91
2018-12-27T02:17:35.784Z,68.57
2018-12-27T02:20:25.029Z,69.00
2018-12-27T02:22:55.358Z,69.29
2018-12-27T02:25:25.663Z,69.20
2018-12-27T02:27:56.158Z,69.53
2018-12-27T02:30:26.628Z,69.41
2018-12-27T02:32:57.056Z,69.01
2018-12-27T02:35:27.577Z,68.38
2018-12-27T02:37:57.907Z,68.13
2018-12-27T02:40:28.161Z,67.57
2018-12-27T02:42:58.565Z,66.99
2018-12-27T02:45:29.003Z,66.61
2018-12-27T02:47:59.342Z,66.26
2018-12-27T02:50:48.603Z,65.89
2018-12-27T02:53:19.131Z,65.58
2018-12-27T02:55:49.453Z,65.46
2018-12-27T03:01:12.205Z,65.40
2018-12-27T03:03:43.999Z,65.20
2018-12-27T03:06:14.768Z,64.71
2018-12-27T03:08:45.342Z,65.16
2018-12-27T03:11:15.850Z,65.13
2018-12-27T03:13:46.259Z,64.86
2018-12-27T03:16:16.744Z,65.24
2018-12-27T03:18:47.606Z,65.23
2018-12-27T03:21:18.361Z,65.32
2018-12-27T03:23:49.349Z,65.24
2018-12-27T03:26:19.689Z,64.87
2018-12-27T03:28:50.508Z,64.85
2018-12-27T03:31:20.877Z,64.72
2018-12-27T03:33:52.897Z,64.84
2018-12-27T03:36:23.418Z,64.69
2018-12-27T03:38:53.887Z,64.83
2018-12-27T03:41:24.299Z,64.92
2018-12-27T03:44:13.358Z,64.88
2018-12-27T03:46:43.784Z,64.60
2018-12-27T03:49:14.095Z,64.69
2018-12-27T03:51:44.541Z,64.59
2018-12-27T03:54:14.934Z,65.10
2018-12-27T03:56:45.334Z,65.30
2018-12-27T03:59:15.980Z,65.24
2018-12-27T04:02:05.497Z,65.06
2018-12-27T04:04:35.921Z,65.36
2018-12-27T04:07:06.280Z,65.73
2018-12-27T04:09:36.734Z,65.70
2018-12-27T04:21:04.568Z,65.17
2018-12-27T04:26:45.051Z,65.84
2018-12-27T04:29:15.477Z,65.63
2018-12-27T04:32:24.553Z,65.39
2018-12-27T04:38:04.867Z,65.63
2018-12-27T04:40:35.230Z,65.01
2018-12-27T04:46:29.263Z,64.37
2018-12-27T04:52:14.400Z,63.86
2018-12-27T05:03:36.666Z,63.37
2018-12-27T05:08:52.060Z,63.68
2018-12-27T05:11:22.349Z,63.55
2018-12-27T05:13:52.626Z,63.74
2018-12-27T05:16:41.729Z,63.85
2018-12-27T05:19:30.935Z,63.85
2018-12-27T05:28:04.840Z,63.99
2018-12-27T05:30:35.156Z,63.72
2018-12-27T05:33:05.413Z,63.76
2018-12-27T05:38:29.617Z,63.79
2018-12-27T05:41:20.233Z,63.77
2018-12-27T05:44:09.295Z,64.04
2018-12-27T05:46:59.698Z,64.10
2018-12-27T05:49:48.768Z,64.35
2018-12-27T05:52:19.248Z,64.63
2018-12-27T05:57:33.651Z,64.68
2018-12-27T06:00:04.016Z,64.75
2018-12-27T06:05:30.302Z,65.23
2018-12-27T06:08:00.593Z,64.88
2018-12-27T06:10:30.910Z,64.61
2018-12-27T06:13:01.218Z,64.18
2018-12-27T06:15:50.507Z,64.38
2018-12-27T06:18:20.906Z,64.80
2018-12-27T06:20:51.218Z,63.59
2018-12-27T06:26:17.834Z,63.03
2018-12-27T06:28:48.142Z,62.92
2018-12-27T06:31:18.371Z,62.85
2018-12-27T06:33:48.698Z,62.71
2018-12-27T06:36:19.058Z,62.86
2018-12-27T06:38:49.488Z,62.70
2018-12-27T06:41:19.841Z,62.62
2018-12-27T06:43:50.215Z,62.46
2018-12-27T06:46:20.585Z,62.32
2018-12-27T06:48:50.999Z,62.48
2018-12-27T06:51:21.270Z,62.19
2018-12-27T06:53:51.532Z,61.63
2018-12-27T06:56:33.094Z,61.48
2018-12-27T06:59:14.561Z,61.62
2018-12-27T07:01:45.042Z,61.68
2018-12-27T07:04:15.346Z,61.42
2018-12-27T07:06:46.064Z,61.37
2018-12-27T07:09:16.753Z,61.17
2018-12-27T07:11:47.091Z,60.89
2018-12-27T07:14:17.392Z,60.79
2018-12-27T07:16:47.710Z,60.55
2018-12-27T07:19:36.838Z,60.64
2018-12-27T07:22:07.184Z,60.67
2018-12-27T07:24:37.483Z,60.60
2018-12-27T07:27:10.503Z,60.31
2018-12-27T07:29:59.586Z,60.24
2018-12-27T07:32:29.880Z,60.20
2018-12-27T07:35:00.160Z,60.01
2018-12-27T07:37:30.545Z,59.35
2018-12-27T07:51:43.000Z,57.69
2018-12-27T07:57:27.877Z,57.05
2018-12-27T08:03:09.295Z,56.94
2018-12-27T08:05:58.459Z,56.93
2018-12-27T08:08:28.898Z,56.79
2018-12-27T08:10:59.214Z,56.55
2018-12-27T08:13:29.476Z,56.37
2018-12-27T08:15:59.789Z,56.24
2018-12-27T08:18:30.122Z,56.84
2018-12-27T08:21:00.518Z,56.55
2018-12-27T08:23:49.787Z,56.94
2018-12-27T08:26:20.132Z,56.87
2018-12-27T08:29:09.195Z,57.04
2018-12-27T08:31:59.708Z,57.01
2018-12-27T08:34:30.185Z,56.96
2018-12-27T08:37:00.471Z,56.85
2018-12-27T08:39:30.812Z,56.94
2018-12-27T08:42:01.237Z,57.06
2018-12-27T08:50:37.179Z,57.21
2018-12-27T08:53:07.414Z,57.13
2018-12-27T08:55:37.718Z,56.73
2018-12-27T09:01:02.568Z,55.96
2018-12-27T09:03:32.809Z,55.31
2018-12-27T09:06:03.077Z,54.86
2018-12-27T09:08:33.526Z,55.04
2018-12-27T09:11:03.794Z,54.88
2018-12-27T09:13:33.941Z,55.06
2018-12-27T09:16:04.410Z,54.98
2018-12-27T09:18:34.630Z,55.15
2018-12-27T09:21:23.740Z,54.53
2018-12-27T09:29:30.140Z,51.73
2018-12-27T09:32:00.412Z,52.01
2018-12-27T09:34:30.626Z,52.12
2018-12-27T09:40:34.675Z,53.38
2018-12-27T09:43:05.008Z,54.02
2018-12-27T09:51:37.584Z,55.08
2018-12-27T09:54:07.806Z,55.31
2018-12-27T09:56:38.055Z,55.25
2018-12-27T09:59:19.626Z,55.04
2018-12-27T10:01:49.954Z,55.80
2018-12-27T10:04:20.220Z,56.58
2018-12-27T10:06:50.551Z,56.80
2018-12-27T10:09:20.823Z,57.75
2018-12-27T10:11:51.016Z,57.79
2018-12-27T10:14:21.406Z,58.03
2018-12-27T10:20:01.348Z,58.29
2018-12-27T10:25:22.250Z,58.22
2018-12-27T10:28:11.222Z,58.08
2018-12-27T10:30:41.970Z,57.76
2018-12-27T10:33:12.268Z,57.43
2018-12-27T10:35:42.621Z,57.20
2018-12-27T10:38:12.826Z,56.81
2018-12-27T10:43:41.720Z,57.21
2018-12-27T10:46:11.997Z,56.49
2018-12-27T10:48:42.011Z,52.46
2018-12-27T10:51:12.616Z,52.41
2018-12-27T10:56:55.675Z,50.25
2018-12-27T10:59:26.032Z,48.95
2018-12-27T11:01:56.246Z,49.21
2018-12-27T11:05:05.411Z,48.90
2018-12-27T11:07:35.592Z,48.74
2018-12-27T11:13:14.066Z,48.83
2018-12-27T11:18:28.851Z,48.62
2018-12-27T11:21:19.248Z,48.29
2018-12-27T11:24:01.602Z,48.12
2018-12-27T11:32:35.292Z,49.19
2018-12-27T11:38:01.526Z,48.50
2018-12-27T11:43:36.748Z,48.48
2018-12-27T11:55:03.608Z,48.52
2018-12-27T12:00:33.945Z,48.72
2018-12-27T12:03:04.398Z,48.30
2018-12-27T12:05:34.725Z,48.40
2018-12-27T12:08:05.186Z,48.90
2018-12-27T12:10:35.639Z,48.61
2018-12-27T12:13:05.969Z,47.89
2018-12-27T12:15:36.369Z,48.01
2018-12-27T12:18:06.587Z,48.51
2018-12-27T12:20:36.819Z,48.13
2018-12-27T12:23:07.368Z,48.62
2018-12-27T12:25:56.692Z,48.66
2018-12-27T12:29:05.862Z,48.63
2018-12-27T12:31:37.686Z,49.10
2018-12-27T12:34:26.782Z,49.67
2018-12-27T12:40:07.425Z,49.39
2018-12-27T12:43:16.714Z,48.51
2018-12-27T12:46:06.042Z,48.81
2018-12-27T12:48:55.307Z,49.05
2018-12-27T12:52:04.655Z,48.88
2018-12-27T13:01:09.330Z,49.15
2018-12-27T13:04:17.105Z,49.03
2018-12-27T13:10:21.521Z,48.82
2018-12-27T13:16:01.671Z,49.17
2018-12-27T13:18:31.785Z,49.58
2018-12-27T13:24:17.479Z,49.28
2018-12-27T13:30:13.310Z,49.84
2018-12-27T13:33:02.415Z,49.86
2018-12-27T13:35:58.158Z,49.77
2018-12-27T13:38:47.291Z,50.29
2018-12-27T13:41:36.504Z,53.53
2018-12-27T13:44:07.017Z,55.24
2018-12-27T13:52:21.597Z,56.83
2018-12-27T13:58:23.814Z,57.20
2018-12-27T14:01:08.150Z,57.68
2018-12-27T14:03:50.479Z,57.90
2018-12-27T14:06:32.837Z,57.88
2018-12-27T14:09:16.937Z,58.37
2018-12-27T14:12:07.489Z,58.60
2018-12-27T14:20:38.250Z,59.20
2018-12-27T14:23:12.142Z,59.31
2018-12-27T14:25:42.839Z,59.50
2018-12-27T14:28:13.668Z,59.78
2018-12-27T14:30:44.064Z,59.66
2018-12-27T14:39:33.893Z,61.03
2018-12-27T14:44:49.735Z,61.46
2018-12-27T14:47:20.199Z,61.81
2018-12-27T14:58:40.635Z,62.61
2018-12-27T15:10:01.499Z,63.44
2018-12-27T15:24:47.218Z,65.39
2018-12-27T15:41:28.570Z,65.02
2018-12-27T15:43:58.794Z,64.75
2018-12-27T15:46:29.086Z,64.79
2018-12-27T15:48:59.436Z,64.30
2018-12-27T15:51:48.507Z,64.00
2018-12-27T15:54:19.009Z,63.36
2018-12-27T15:56:49.812Z,63.62
2018-12-27T15:59:38.906Z,63.51
2018-12-27T16:02:09.203Z,63.24
2018-12-27T16:04:59.588Z,62.92
2018-12-27T16:10:40.185Z,63.04
2018-12-27T16:15:57.119Z,62.03
2018-12-27T16:18:27.402Z,62.27
2018-12-27T16:20:57.651Z,62.43
2018-12-27T16:26:22.881Z,61.99
2018-12-27T16:28:53.639Z,62.06
2018-12-27T16:31:23.963Z,62.50
2018-12-27T16:33:54.531Z,62.89
2018-12-27T16:36:24.821Z,62.98
2018-12-27T16:38:55.145Z,63.47
2018-12-27T16:41:25.520Z,63.74
2018-12-27T16:44:16.149Z,63.36
2018-12-27T16:50:21.504Z,62.98
2018-12-27T16:56:09.451Z,62.48
2018-12-27T16:59:01.053Z,62.75
2018-12-27T17:02:10.693Z,63.33
2018-12-27T17:07:57.532Z,63.41
2018-12-27T17:13:31.295Z,63.57
2018-12-27T17:16:21.838Z,63.53
2018-12-27T17:28:09.513Z,63.32
2018-12-27T17:30:58.523Z,63.03
2018-12-27T17:36:50.277Z,62.58
2018-12-27T17:45:36.521Z,62.50
2018-12-27T18:00:47.534Z,61.85
2018-12-27T18:03:55.295Z,62.07
2018-12-27T18:06:44.750Z,61.65
2018-12-27T18:12:48.616Z,62.41
2018-12-27T18:27:37.814Z,63.37
2018-12-27T18:42:29.440Z,63.54
2018-12-27T18:51:13.782Z,63.66
2018-12-27T18:57:32.695Z,63.72
2018-12-27T19:00:24.539Z,63.60
2018-12-27T19:15:15.781Z,64.13
2018-12-27T19:20:43.466Z,64.89
2018-12-27T19:26:34.564Z,64.97
2018-12-27T19:29:15.562Z,65.75
2018-12-27T19:31:57.407Z,66.00
2018-12-27T19:34:37.951Z,66.44
2018-12-27T19:37:19.572Z,66.43
2018-12-27T19:43:16.536Z,67.28
2018-12-27T19:49:14.965Z,68.20
2018-12-27T19:52:04.041Z,68.45
2018-12-27T19:54:45.819Z,68.67
2018-12-27T20:06:17.739Z,68.92
2018-12-27T20:09:04.355Z,68.92
2018-12-27T20:11:50.979Z,69.09
2018-12-27T20:14:37.523Z,68.98
2018-12-27T20:17:28.178Z,68.69
2018-12-27T20:20:18.654Z,68.32
2018-12-27T20:23:09.573Z,68.22
2018-12-27T20:26:00.202Z,68.14
2018-12-27T20:34:44.715Z,67.22
2018-12-27T20:43:54.337Z,66.83
2018-12-27T20:49:45.318Z,67.31
2018-12-27T20:52:26.956Z,67.20
2018-12-27T20:55:07.869Z,67.36
2018-12-27T21:00:34.782Z,67.51
2018-12-27T21:03:15.549Z,67.78
2018-12-27T21:05:56.723Z,67.89
2018-12-27T21:11:23.287Z,68.55
2018-12-27T21:17:17.749Z,68.76
2018-12-27T21:26:23.063Z,68.89
2018-12-27T21:29:32.877Z,68.83
2018-12-27T21:32:43.829Z,68.92
2018-12-27T21:35:33.322Z,69.02
2018-12-27T21:38:42.578Z,68.79
2018-12-27T21:50:28.234Z,68.05
2018-12-27T21:59:07.933Z,68.02
2018-12-27T22:07:53.486Z,67.61
2018-12-27T22:10:34.858Z,68.11
2018-12-27T22:13:16.391Z,67.78
2018-12-27T22:24:51.354Z,67.48
2018-12-27T22:30:25.111Z,67.62
2018-12-27T22:33:14.448Z,67.63
2018-12-27T22:36:03.776Z,67.70
2018-12-27T22:38:59.424Z,67.84
2018-12-27T22:44:56.743Z,68.00
2018-12-27T22:50:50.919Z,68.40
2018-12-27T22:53:41.849Z,68.15
2018-12-27T22:56:22.714Z,68.03
2018-12-27T23:05:13.320Z,67.95
2018-12-27T23:08:04.018Z,67.99
2018-12-27T23:10:52.380Z,68.04
2018-12-27T23:13:47.652Z,68.13
2018-12-27T23:16:36.843Z,68.28
2018-12-27T23:19:17.739Z,68.14
2018-12-27T23:22:07.043Z,68.15
2018-12-27T23:24:57.666Z,68.11
2018-12-27T23:31:06.631Z,67.92
2018-12-27T23:37:05.673Z,67.75
2018-12-27T23:43:09.597Z,67.74
2018-12-27T23:45:51.207Z,67.71
2018-12-27T23:48:32.845Z,67.93
2018-12-27T23:54:05.004Z,68.47
2018-12-27T23:59:17.560Z,68.36
